sensor_id;sensor_type;location;lat;lon;timestamp;temperature;humidity
38480;DHT22;62333;51.980;5.934;2024-01-10T00:00:14;1.00;47.40
38480;DHT22;62333;51.980;5.934;2024-01-10T00:02:40;1.00;47.40
38480;DHT22;62333;51.980;5.934;2024-01-10T00:05:06;1.00;47.50
38480;DHT22;62333;51.980;5.934;2024-01-10T00:07:32;1.00;47.60
38480;DHT22;62333;51.980;5.934;2024-01-10T00:09:57;1.00;47.70
38480;DHT22;62333;51.980;5.934;2024-01-10T00:12:28;1.00;47.90
38480;DHT22;62333;51.980;5.934;2024-01-10T00:14:58;0.90;48.00
38480;DHT22;62333;51.980;5.934;2024-01-10T00:17:24;0.90;48.10
38480;DHT22;62333;51.980;5.934;2024-01-10T00:19:50;0.90;48.40
38480;DHT22;62333;51.980;5.934;2024-01-10T00:22:15;0.80;48.50
38480;DHT22;62333;51.980;5.934;2024-01-10T00:24:41;0.80;48.60
38480;DHT22;62333;51.980;5.934;2024-01-10T00:27:07;0.80;48.60
38480;DHT22;62333;51.980;5.934;2024-01-10T00:29:32;0.90;48.60
38480;DHT22;62333;51.980;5.934;2024-01-10T00:31:58;0.90;48.60
38480;DHT22;62333;51.980;5.934;2024-01-10T00:34:25;0.90;48.60
38480;DHT22;62333;51.980;5.934;2024-01-10T00:36:50;0.90;48.70
38480;DHT22;62333;51.980;5.934;2024-01-10T00:39:16;0.90;48.80
38480;DHT22;62333;51.980;5.934;2024-01-10T00:41:42;0.80;48.90
38480;DHT22;62333;51.980;5.934;2024-01-10T00:44:08;0.80;49.10
38480;DHT22;62333;51.980;5.934;2024-01-10T00:46:33;0.80;49.20
38480;DHT22;62333;51.980;5.934;2024-01-10T00:48:59;0.80;49.30
38480;DHT22;62333;51.980;5.934;2024-01-10T00:51:25;0.80;49.30
38480;DHT22;62333;51.980;5.934;2024-01-10T00:53:50;0.90;49.30
38480;DHT22;62333;51.980;5.934;2024-01-10T00:56:16;0.90;49.30
38480;DHT22;62333;51.980;5.934;2024-01-10T00:58:42;0.90;49.30
38480;DHT22;62333;51.980;5.934;2024-01-10T01:01:07;0.90;49.30
38480;DHT22;62333;51.980;5.934;2024-01-10T01:03:33;0.90;49.30
38480;DHT22;62333;51.980;5.934;2024-01-10T01:05:59;0.90;49.30
38480;DHT22;62333;51.980;5.934;2024-01-10T01:08:25;0.90;49.30
38480;DHT22;62333;51.980;5.934;2024-01-10T01:10:50;1.00;49.30
38480;DHT22;62333;51.980;5.934;2024-01-10T01:13:16;1.00;49.30
38480;DHT22;62333;51.980;5.934;2024-01-10T01:15:43;1.20;49.30
38480;DHT22;62333;51.980;5.934;2024-01-10T01:18:08;1.20;49.10
38480;DHT22;62333;51.980;5.934;2024-01-10T01:20:35;1.20;49.00
38480;DHT22;62333;51.980;5.934;2024-01-10T01:23:01;1.20;48.90
38480;DHT22;62333;51.980;5.934;2024-01-10T01:25:26;1.30;48.90
38480;DHT22;62333;51.980;5.934;2024-01-10T01:27:52;1.30;48.80
38480;DHT22;62333;51.980;5.934;2024-01-10T01:30:18;1.30;48.80
38480;DHT22;62333;51.980;5.934;2024-01-10T01:32:47;1.30;48.90
38480;DHT22;62333;51.980;5.934;2024-01-10T01:35:12;1.30;48.90
38480;DHT22;62333;51.980;5.934;2024-01-10T01:37:38;1.30;48.90
38480;DHT22;62333;51.980;5.934;2024-01-10T01:40:04;1.20;49.00
38480;DHT22;62333;51.980;5.934;2024-01-10T01:42:30;1.10;49.10
38480;DHT22;62333;51.980;5.934;2024-01-10T01:44:56;1.10;49.30
38480;DHT22;62333;51.980;5.934;2024-01-10T01:47:21;1.00;49.40
38480;DHT22;62333;51.980;5.934;2024-01-10T01:49:47;0.90;49.60
38480;DHT22;62333;51.980;5.934;2024-01-10T01:52:13;0.90;49.80
38480;DHT22;62333;51.980;5.934;2024-01-10T01:54:39;0.70;49.90
38480;DHT22;62333;51.980;5.934;2024-01-10T01:57:05;0.70;50.10
38480;DHT22;62333;51.980;5.934;2024-01-10T01:59:31;0.70;50.20
38480;DHT22;62333;51.980;5.934;2024-01-10T02:01:58;0.70;50.20
38480;DHT22;62333;51.980;5.934;2024-01-10T02:04:26;0.80;50.20
38480;DHT22;62333;51.980;5.934;2024-01-10T02:06:53;0.70;50.10
38480;DHT22;62333;51.980;5.934;2024-01-10T02:09:19;0.70;50.10
38480;DHT22;62333;51.980;5.934;2024-01-10T02:11:45;0.80;50.10
38480;DHT22;62333;51.980;5.934;2024-01-10T02:14:11;0.80;50.00
38480;DHT22;62333;51.980;5.934;2024-01-10T02:16:37;0.80;50.00
38480;DHT22;62333;51.980;5.934;2024-01-10T02:19:26;0.80;50.00
38480;DHT22;62333;51.980;5.934;2024-01-10T02:21:53;0.80;50.00
38480;DHT22;62333;51.980;5.934;2024-01-10T02:24:18;0.70;50.30
38480;DHT22;62333;51.980;5.934;2024-01-10T02:26:44;0.70;50.30
38480;DHT22;62333;51.980;5.934;2024-01-10T02:29:10;0.70;50.30
38480;DHT22;62333;51.980;5.934;2024-01-10T02:31:35;0.70;50.30
38480;DHT22;62333;51.980;5.934;2024-01-10T02:34:01;0.70;50.40
38480;DHT22;62333;51.980;5.934;2024-01-10T02:36:26;0.60;50.40
38480;DHT22;62333;51.980;5.934;2024-01-10T02:38:52;0.60;50.60
38480;DHT22;62333;51.980;5.934;2024-01-10T02:41:18;0.60;50.60
38480;DHT22;62333;51.980;5.934;2024-01-10T02:43:43;0.60;50.50
38480;DHT22;62333;51.980;5.934;2024-01-10T02:46:09;0.70;50.50
38480;DHT22;62333;51.980;5.934;2024-01-10T02:48:35;0.70;50.50
38480;DHT22;62333;51.980;5.934;2024-01-10T02:51:00;0.70;50.50
38480;DHT22;62333;51.980;5.934;2024-01-10T02:53:26;0.80;50.60
38480;DHT22;62333;51.980;5.934;2024-01-10T02:55:51;0.70;50.60
38480;DHT22;62333;51.980;5.934;2024-01-10T02:58:17;0.60;50.80
38480;DHT22;62333;51.980;5.934;2024-01-10T03:00:43;0.70;51.00
38480;DHT22;62333;51.980;5.934;2024-01-10T03:03:09;0.60;51.00
38480;DHT22;62333;51.980;5.934;2024-01-10T03:05:34;0.50;51.00
38480;DHT22;62333;51.980;5.934;2024-01-10T03:08:00;0.60;51.20
38480;DHT22;62333;51.980;5.934;2024-01-10T03:10:27;0.50;51.20
38480;DHT22;62333;51.980;5.934;2024-01-10T03:12:53;0.50;51.30
38480;DHT22;62333;51.980;5.934;2024-01-10T03:15:18;0.50;51.30
38480;DHT22;62333;51.980;5.934;2024-01-10T03:17:44;0.50;51.30
38480;DHT22;62333;51.980;5.934;2024-01-10T03:20:10;0.50;51.40
38480;DHT22;62333;51.980;5.934;2024-01-10T03:22:36;0.50;51.40
38480;DHT22;62333;51.980;5.934;2024-01-10T03:25:02;0.50;51.30
38480;DHT22;62333;51.980;5.934;2024-01-10T03:27:28;0.50;51.30
38480;DHT22;62333;51.980;5.934;2024-01-10T03:29:54;0.50;51.40
38480;DHT22;62333;51.980;5.934;2024-01-10T03:32:19;0.50;51.50
38480;DHT22;62333;51.980;5.934;2024-01-10T03:34:45;0.50;51.50
38480;DHT22;62333;51.980;5.934;2024-01-10T03:37:11;0.50;51.50
38480;DHT22;62333;51.980;5.934;2024-01-10T03:39:37;0.50;51.60
38480;DHT22;62333;51.980;5.934;2024-01-10T03:42:03;0.40;51.60
38480;DHT22;62333;51.980;5.934;2024-01-10T03:44:28;0.50;51.70
38480;DHT22;62333;51.980;5.934;2024-01-10T03:46:54;0.50;51.60
38480;DHT22;62333;51.980;5.934;2024-01-10T03:49:20;0.50;51.50
38480;DHT22;62333;51.980;5.934;2024-01-10T03:51:45;0.60;51.60
38480;DHT22;62333;51.980;5.934;2024-01-10T03:54:11;0.50;51.70
38480;DHT22;62333;51.980;5.934;2024-01-10T03:56:37;0.50;51.70
38480;DHT22;62333;51.980;5.934;2024-01-10T03:59:02;0.50;51.80
38480;DHT22;62333;51.980;5.934;2024-01-10T04:01:28;0.50;51.80
38480;DHT22;62333;51.980;5.934;2024-01-10T04:03:53;0.50;51.80
38480;DHT22;62333;51.980;5.934;2024-01-10T04:06:19;0.50;51.90
38480;DHT22;62333;51.980;5.934;2024-01-10T04:08:45;0.40;52.10
38480;DHT22;62333;51.980;5.934;2024-01-10T04:11:10;0.30;52.20
38480;DHT22;62333;51.980;5.934;2024-01-10T04:13:36;0.30;52.40
38480;DHT22;62333;51.980;5.934;2024-01-10T04:16:02;0.20;52.40
38480;DHT22;62333;51.980;5.934;2024-01-10T04:18:27;0.20;52.50
38480;DHT22;62333;51.980;5.934;2024-01-10T04:20:53;0.30;52.50
38480;DHT22;62333;51.980;5.934;2024-01-10T04:23:19;0.30;52.50
38480;DHT22;62333;51.980;5.934;2024-01-10T04:25:44;0.20;52.50
38480;DHT22;62333;51.980;5.934;2024-01-10T04:28:10;0.20;52.60
38480;DHT22;62333;51.980;5.934;2024-01-10T04:30:36;0.30;52.80
38480;DHT22;62333;51.980;5.934;2024-01-10T04:33:01;0.20;52.90
38480;DHT22;62333;51.980;5.934;2024-01-10T04:35:27;0.10;53.00
38480;DHT22;62333;51.980;5.934;2024-01-10T04:37:52;0.00;53.10
38480;DHT22;62333;51.980;5.934;2024-01-10T04:40:18;0.00;53.30
38480;DHT22;62333;51.980;5.934;2024-01-10T04:42:44;0.00;53.40
38480;DHT22;62333;51.980;5.934;2024-01-10T04:45:10;0.00;53.50
38480;DHT22;62333;51.980;5.934;2024-01-10T04:47:36;0.00;53.50
38480;DHT22;62333;51.980;5.934;2024-01-10T04:50:01;0.00;53.70
38480;DHT22;62333;51.980;5.934;2024-01-10T04:52:27;-0.10;53.70
38480;DHT22;62333;51.980;5.934;2024-01-10T04:54:53;-0.10;53.90
38480;DHT22;62333;51.980;5.934;2024-01-10T04:57:18;-0.10;54.00
38480;DHT22;62333;51.980;5.934;2024-01-10T04:59:44;-0.10;54.10
38480;DHT22;62333;51.980;5.934;2024-01-10T05:02:10;-0.10;54.20
38480;DHT22;62333;51.980;5.934;2024-01-10T05:04:36;-0.10;54.30
38480;DHT22;62333;51.980;5.934;2024-01-10T05:07:01;-0.20;54.40
38480;DHT22;62333;51.980;5.934;2024-01-10T05:09:27;-0.20;54.40
38480;DHT22;62333;51.980;5.934;2024-01-10T05:11:53;-0.10;54.50
38480;DHT22;62333;51.980;5.934;2024-01-10T05:14:18;-0.20;54.40
38480;DHT22;62333;51.980;5.934;2024-01-10T05:16:45;-0.10;54.40
38480;DHT22;62333;51.980;5.934;2024-01-10T05:19:13;-0.10;54.40
38480;DHT22;62333;51.980;5.934;2024-01-10T05:21:38;0.00;54.50
38480;DHT22;62333;51.980;5.934;2024-01-10T05:24:05;0.00;54.60
38480;DHT22;62333;51.980;5.934;2024-01-10T05:26:31;-0.10;54.50
38480;DHT22;62333;51.980;5.934;2024-01-10T05:28:57;0.00;54.50
38480;DHT22;62333;51.980;5.934;2024-01-10T05:31:22;0.00;54.40
38480;DHT22;62333;51.980;5.934;2024-01-10T05:33:48;0.00;54.30
38480;DHT22;62333;51.980;5.934;2024-01-10T05:36:14;0.10;54.30
38480;DHT22;62333;51.980;5.934;2024-01-10T05:38:39;0.20;54.20
38480;DHT22;62333;51.980;5.934;2024-01-10T05:41:08;0.10;54.20
38480;DHT22;62333;51.980;5.934;2024-01-10T05:43:34;0.10;54.30
38480;DHT22;62333;51.980;5.934;2024-01-10T05:46:00;0.00;54.40
38480;DHT22;62333;51.980;5.934;2024-01-10T05:48:25;0.10;54.40
38480;DHT22;62333;51.980;5.934;2024-01-10T05:50:51;0.00;54.40
38480;DHT22;62333;51.980;5.934;2024-01-10T05:53:17;0.00;54.50
38480;DHT22;62333;51.980;5.934;2024-01-10T05:55:45;0.00;54.50
38480;DHT22;62333;51.980;5.934;2024-01-10T05:58:11;0.00;54.50
38480;DHT22;62333;51.980;5.934;2024-01-10T06:00:37;0.00;54.50
38480;DHT22;62333;51.980;5.934;2024-01-10T06:03:03;0.00;54.50
38480;DHT22;62333;51.980;5.934;2024-01-10T06:05:29;0.00;54.60
38480;DHT22;62333;51.980;5.934;2024-01-10T06:07:55;0.00;54.50
38480;DHT22;62333;51.980;5.934;2024-01-10T06:10:20;0.00;54.50
38480;DHT22;62333;51.980;5.934;2024-01-10T06:12:46;0.10;54.50
38480;DHT22;62333;51.980;5.934;2024-01-10T06:15:11;0.10;54.50
38480;DHT22;62333;51.980;5.934;2024-01-10T06:17:37;0.00;54.50
38480;DHT22;62333;51.980;5.934;2024-01-10T06:20:04;0.10;54.60
38480;DHT22;62333;51.980;5.934;2024-01-10T06:22:30;0.00;54.60
38480;DHT22;62333;51.980;5.934;2024-01-10T06:24:55;0.00;54.60
38480;DHT22;62333;51.980;5.934;2024-01-10T06:27:21;0.10;54.50
38480;DHT22;62333;51.980;5.934;2024-01-10T06:29:46;0.10;54.50
38480;DHT22;62333;51.980;5.934;2024-01-10T06:32:12;0.10;54.50
38480;DHT22;62333;51.980;5.934;2024-01-10T06:34:40;0.00;54.50
38480;DHT22;62333;51.980;5.934;2024-01-10T06:37:05;0.00;54.60
38480;DHT22;62333;51.980;5.934;2024-01-10T06:39:33;0.00;54.60
38480;DHT22;62333;51.980;5.934;2024-01-10T06:41:58;0.10;54.60
38480;DHT22;62333;51.980;5.934;2024-01-10T06:44:24;0.10;54.50
38480;DHT22;62333;51.980;5.934;2024-01-10T06:46:51;0.10;54.60
38480;DHT22;62333;51.980;5.934;2024-01-10T06:49:16;0.00;54.70
38480;DHT22;62333;51.980;5.934;2024-01-10T06:51:42;0.00;54.80
38480;DHT22;62333;51.980;5.934;2024-01-10T06:54:08;-0.10;54.90
38480;DHT22;62333;51.980;5.934;2024-01-10T06:56:34;-0.10;54.90
38480;DHT22;62333;51.980;5.934;2024-01-10T06:59:00;0.00;54.90
38480;DHT22;62333;51.980;5.934;2024-01-10T07:01:27;0.10;54.80
38480;DHT22;62333;51.980;5.934;2024-01-10T07:03:53;0.10;54.60
38480;DHT22;62333;51.980;5.934;2024-01-10T07:06:22;0.10;54.40
38480;DHT22;62333;51.980;5.934;2024-01-10T07:08:50;0.20;54.40
38480;DHT22;62333;51.980;5.934;2024-01-10T07:11:16;0.30;54.50
38480;DHT22;62333;51.980;5.934;2024-01-10T07:13:42;0.30;54.40
38480;DHT22;62333;51.980;5.934;2024-01-10T07:16:09;0.20;54.30
38480;DHT22;62333;51.980;5.934;2024-01-10T07:18:35;0.30;54.30
38480;DHT22;62333;51.980;5.934;2024-01-10T07:21:00;0.30;54.20
38480;DHT22;62333;51.980;5.934;2024-01-10T07:23:26;0.30;54.10
38480;DHT22;62333;51.980;5.934;2024-01-10T07:25:52;0.30;54.10
38480;DHT22;62333;51.980;5.934;2024-01-10T07:28:18;0.40;54.20
38480;DHT22;62333;51.980;5.934;2024-01-10T07:30:45;0.40;54.10
38480;DHT22;62333;51.980;5.934;2024-01-10T07:33:11;0.40;54.00
38480;DHT22;62333;51.980;5.934;2024-01-10T07:35:37;0.30;54.00
38480;DHT22;62333;51.980;5.934;2024-01-10T07:38:06;0.30;54.00
38480;DHT22;62333;51.980;5.934;2024-01-10T07:40:35;0.40;54.10
38480;DHT22;62333;51.980;5.934;2024-01-10T07:43:01;0.30;54.00
38480;DHT22;62333;51.980;5.934;2024-01-10T07:45:27;0.30;53.90
38480;DHT22;62333;51.980;5.934;2024-01-10T07:47:52;0.30;53.90
38480;DHT22;62333;51.980;5.934;2024-01-10T07:50:18;0.30;54.00
38480;DHT22;62333;51.980;5.934;2024-01-10T07:52:46;0.30;54.00
38480;DHT22;62333;51.980;5.934;2024-01-10T07:55:12;0.30;54.00
38480;DHT22;62333;51.980;5.934;2024-01-10T07:57:38;0.40;54.00
38480;DHT22;62333;51.980;5.934;2024-01-10T08:00:05;0.40;53.90
38480;DHT22;62333;51.980;5.934;2024-01-10T08:02:33;0.50;53.80
38480;DHT22;62333;51.980;5.934;2024-01-10T08:05:03;0.40;53.50
38480;DHT22;62333;51.980;5.934;2024-01-10T08:07:34;0.50;53.50
38480;DHT22;62333;51.980;5.934;2024-01-10T08:10:00;0.50;53.50
38480;DHT22;62333;51.980;5.934;2024-01-10T08:12:26;0.40;53.10
38480;DHT22;62333;51.980;5.934;2024-01-10T08:14:51;0.40;53.40
38480;DHT22;62333;51.980;5.934;2024-01-10T08:17:17;0.30;53.20
38480;DHT22;62333;51.980;5.934;2024-01-10T08:19:43;0.60;53.40
38480;DHT22;62333;51.980;5.934;2024-01-10T08:22:08;1.20;53.20
38480;DHT22;62333;51.980;5.934;2024-01-10T08:24:34;2.10;52.10
38480;DHT22;62333;51.980;5.934;2024-01-10T08:27:00;2.90;53.30
38480;DHT22;62333;51.980;5.934;2024-01-10T08:29:25;3.80;53.10
38480;DHT22;62333;51.980;5.934;2024-01-10T08:31:55;4.60;51.90
38480;DHT22;62333;51.980;5.934;2024-01-10T08:34:22;5.40;50.50
38480;DHT22;62333;51.980;5.934;2024-01-10T08:36:47;5.90;49.00
38480;DHT22;62333;51.980;5.934;2024-01-10T08:39:16;6.10;48.80
38480;DHT22;62333;51.980;5.934;2024-01-10T08:41:42;6.50;47.80
38480;DHT22;62333;51.980;5.934;2024-01-10T08:44:10;6.90;46.90
38480;DHT22;62333;51.980;5.934;2024-01-10T08:46:36;6.90;45.80
38480;DHT22;62333;51.980;5.934;2024-01-10T08:49:01;7.10;45.60
38480;DHT22;62333;51.980;5.934;2024-01-10T08:51:28;7.20;44.80
38480;DHT22;62333;51.980;5.934;2024-01-10T08:53:53;7.10;44.60
38480;DHT22;62333;51.980;5.934;2024-01-10T08:56:19;6.80;44.50
38480;DHT22;62333;51.980;5.934;2024-01-10T08:58:45;6.80;44.30
38480;DHT22;62333;51.980;5.934;2024-01-10T09:01:11;6.70;43.80
38480;DHT22;62333;51.980;5.934;2024-01-10T09:03:37;6.50;43.40
38480;DHT22;62333;51.980;5.934;2024-01-10T09:06:05;6.20;43.40
38480;DHT22;62333;51.980;5.934;2024-01-10T09:08:33;5.90;43.90
38480;DHT22;62333;51.980;5.934;2024-01-10T09:10:59;5.60;44.00
38480;DHT22;62333;51.980;5.934;2024-01-10T09:13:24;5.40;44.10
38480;DHT22;62333;51.980;5.934;2024-01-10T09:15:50;4.80;44.20
38480;DHT22;62333;51.980;5.934;2024-01-10T09:18:16;4.50;44.90
38480;DHT22;62333;51.980;5.934;2024-01-10T09:20:41;4.40;45.30
38480;DHT22;62333;51.980;5.934;2024-01-10T09:23:07;4.30;45.40
38480;DHT22;62333;51.980;5.934;2024-01-10T09:25:33;4.10;45.20
38480;DHT22;62333;51.980;5.934;2024-01-10T09:27:58;4.00;45.50
38480;DHT22;62333;51.980;5.934;2024-01-10T09:30:24;3.90;45.60
38480;DHT22;62333;51.980;5.934;2024-01-10T09:32:50;3.70;46.10
38480;DHT22;62333;51.980;5.934;2024-01-10T09:35:15;3.60;48.50
38480;DHT22;62333;51.980;5.934;2024-01-10T09:37:41;3.60;50.00
38480;DHT22;62333;51.980;5.934;2024-01-10T09:40:07;3.70;49.00
38480;DHT22;62333;51.980;5.934;2024-01-10T09:42:34;3.60;47.70
38480;DHT22;62333;51.980;5.934;2024-01-10T09:45:03;3.70;47.20
38480;DHT22;62333;51.980;5.934;2024-01-10T09:47:32;3.70;46.90
38480;DHT22;62333;51.980;5.934;2024-01-10T09:49:58;3.70;46.70
38480;DHT22;62333;51.980;5.934;2024-01-10T09:52:26;3.80;46.50
38480;DHT22;62333;51.980;5.934;2024-01-10T09:54:54;3.80;45.90
38480;DHT22;62333;51.980;5.934;2024-01-10T09:57:22;3.80;45.50
38480;DHT22;62333;51.980;5.934;2024-01-10T09:59:50;3.80;45.40
38480;DHT22;62333;51.980;5.934;2024-01-10T10:02:18;3.90;45.40
38480;DHT22;62333;51.980;5.934;2024-01-10T10:04:59;3.90;45.10
38480;DHT22;62333;51.980;5.934;2024-01-10T10:07:27;3.90;45.00
38480;DHT22;62333;51.980;5.934;2024-01-10T10:09:52;3.90;44.90
38480;DHT22;62333;51.980;5.934;2024-01-10T10:12:19;3.90;44.60
38480;DHT22;62333;51.980;5.934;2024-01-10T10:14:44;3.90;44.30
38480;DHT22;62333;51.980;5.934;2024-01-10T10:17:14;3.80;44.40
38480;DHT22;62333;51.980;5.934;2024-01-10T10:19:40;3.90;44.70
38480;DHT22;62333;51.980;5.934;2024-01-10T10:22:10;4.00;44.70
38480;DHT22;62333;51.980;5.934;2024-01-10T10:24:36;4.10;44.70
38480;DHT22;62333;51.980;5.934;2024-01-10T10:27:08;4.20;44.60
38480;DHT22;62333;51.980;5.934;2024-01-10T10:29:36;4.30;44.40
38480;DHT22;62333;51.980;5.934;2024-01-10T10:32:03;4.40;44.50
38480;DHT22;62333;51.980;5.934;2024-01-10T10:34:31;4.50;44.30
38480;DHT22;62333;51.980;5.934;2024-01-10T10:37:01;4.50;43.90
38480;DHT22;62333;51.980;5.934;2024-01-10T10:39:28;4.60;44.00
38480;DHT22;62333;51.980;5.934;2024-01-10T10:41:53;4.70;44.00
38480;DHT22;62333;51.980;5.934;2024-01-10T10:44:23;4.90;44.20
38480;DHT22;62333;51.980;5.934;2024-01-10T10:46:51;5.00;44.00
38480;DHT22;62333;51.980;5.934;2024-01-10T10:49:18;5.00;43.50
38480;DHT22;62333;51.980;5.934;2024-01-10T10:51:46;5.00;43.00
38480;DHT22;62333;51.980;5.934;2024-01-10T10:54:14;5.00;43.20
38480;DHT22;62333;51.980;5.934;2024-01-10T10:56:43;4.90;42.30
38480;DHT22;62333;51.980;5.934;2024-01-10T10:59:10;4.90;42.80
38480;DHT22;62333;51.980;5.934;2024-01-10T11:01:36;4.90;42.60
38480;DHT22;62333;51.980;5.934;2024-01-10T11:04:02;4.90;42.40
38480;DHT22;62333;51.980;5.934;2024-01-10T11:06:29;4.90;42.40
38480;DHT22;62333;51.980;5.934;2024-01-10T11:08:59;4.90;42.10
38480;DHT22;62333;51.980;5.934;2024-01-10T11:25:03;5.20;41.90
38480;DHT22;62333;51.980;5.934;2024-01-10T11:27:29;5.20;42.00
38480;DHT22;62333;51.980;5.934;2024-01-10T11:29:55;5.30;41.90
38480;DHT22;62333;51.980;5.934;2024-01-10T11:32:22;5.40;41.90
38480;DHT22;62333;51.980;5.934;2024-01-10T11:34:54;5.50;41.70
38480;DHT22;62333;51.980;5.934;2024-01-10T11:37:42;5.60;41.70
38480;DHT22;62333;51.980;5.934;2024-01-10T11:40:08;5.80;41.80
38480;DHT22;62333;51.980;5.934;2024-01-10T11:42:45;5.90;41.50
38480;DHT22;62333;51.980;5.934;2024-01-10T11:47:57;6.10;40.80
38480;DHT22;62333;51.980;5.934;2024-01-10T11:50:23;6.20;41.00
38480;DHT22;62333;51.980;5.934;2024-01-10T11:52:53;6.20;40.40
38480;DHT22;62333;51.980;5.934;2024-01-10T11:55:50;6.30;40.20
38480;DHT22;62333;51.980;5.934;2024-01-10T11:58:17;6.30;39.60
38480;DHT22;62333;51.980;5.934;2024-01-10T12:00:43;6.20;39.60
38480;DHT22;62333;51.980;5.934;2024-01-10T12:03:11;6.20;39.60
38480;DHT22;62333;51.980;5.934;2024-01-10T12:05:37;6.30;39.70
38480;DHT22;62333;51.980;5.934;2024-01-10T12:08:07;6.30;39.80
38480;DHT22;62333;51.980;5.934;2024-01-10T12:10:33;6.40;39.90
38480;DHT22;62333;51.980;5.934;2024-01-10T12:13:03;6.50;39.80
38480;DHT22;62333;51.980;5.934;2024-01-10T12:15:29;6.50;39.80
38480;DHT22;62333;51.980;5.934;2024-01-10T12:17:55;6.50;40.00
38480;DHT22;62333;51.980;5.934;2024-01-10T12:20:21;6.60;40.20
38480;DHT22;62333;51.980;5.934;2024-01-10T12:22:47;6.80;40.30
38480;DHT22;62333;51.980;5.934;2024-01-10T12:25:12;6.90;40.10
38480;DHT22;62333;51.980;5.934;2024-01-10T12:27:38;6.90;39.60
38480;DHT22;62333;51.980;5.934;2024-01-10T12:30:05;6.90;40.10
38480;DHT22;62333;51.980;5.934;2024-01-10T12:32:31;6.90;39.10
38480;DHT22;62333;51.980;5.934;2024-01-10T12:35:02;6.80;39.30
38480;DHT22;62333;51.980;5.934;2024-01-10T12:37:28;6.90;40.00
38480;DHT22;62333;51.980;5.934;2024-01-10T12:39:53;6.90;39.10
38480;DHT22;62333;51.980;5.934;2024-01-10T12:42:20;6.70;39.10
38480;DHT22;62333;51.980;5.934;2024-01-10T12:44:45;6.70;39.10
38480;DHT22;62333;51.980;5.934;2024-01-10T12:47:21;6.70;38.80
38480;DHT22;62333;51.980;5.934;2024-01-10T12:49:48;6.70;39.20
38480;DHT22;62333;51.980;5.934;2024-01-10T12:52:13;6.70;39.40
38480;DHT22;62333;51.980;5.934;2024-01-10T12:54:40;6.80;39.70
38480;DHT22;62333;51.980;5.934;2024-01-10T12:57:05;6.80;39.90
38480;DHT22;62333;51.980;5.934;2024-01-10T12:59:34;6.80;40.70
38480;DHT22;62333;51.980;5.934;2024-01-10T13:02:00;6.80;39.80
38480;DHT22;62333;51.980;5.934;2024-01-10T13:04:26;6.80;40.30
38480;DHT22;62333;51.980;5.934;2024-01-10T13:06:52;6.80;39.90
38480;DHT22;62333;51.980;5.934;2024-01-10T13:09:17;6.80;39.70
38480;DHT22;62333;51.980;5.934;2024-01-10T13:11:43;6.80;39.90
38480;DHT22;62333;51.980;5.934;2024-01-10T13:14:11;6.80;39.70
38480;DHT22;62333;51.980;5.934;2024-01-10T13:16:37;6.80;39.70
38480;DHT22;62333;51.980;5.934;2024-01-10T13:19:03;6.80;39.80
38480;DHT22;62333;51.980;5.934;2024-01-10T13:21:29;6.80;39.70
38480;DHT22;62333;51.980;5.934;2024-01-10T13:23:55;6.80;39.00
38480;DHT22;62333;51.980;5.934;2024-01-10T13:26:20;6.60;39.10
38480;DHT22;62333;51.980;5.934;2024-01-10T13:28:46;6.60;39.10
38480;DHT22;62333;51.980;5.934;2024-01-10T13:31:12;6.60;39.20
38480;DHT22;62333;51.980;5.934;2024-01-10T13:33:39;6.50;39.40
38480;DHT22;62333;51.980;5.934;2024-01-10T13:36:05;6.50;39.50
38480;DHT22;62333;51.980;5.934;2024-01-10T13:38:31;6.60;40.20
38480;DHT22;62333;51.980;5.934;2024-01-10T13:40:57;6.80;40.20
38480;DHT22;62333;51.980;5.934;2024-01-10T13:43:23;6.80;40.00
38480;DHT22;62333;51.980;5.934;2024-01-10T13:45:48;6.80;40.20
38480;DHT22;62333;51.980;5.934;2024-01-10T13:48:14;6.80;40.40
38480;DHT22;62333;51.980;5.934;2024-01-10T13:50:41;6.80;40.60
38480;DHT22;62333;51.980;5.934;2024-01-10T13:53:07;6.70;40.10
38480;DHT22;62333;51.980;5.934;2024-01-10T13:55:33;6.70;40.10
38480;DHT22;62333;51.980;5.934;2024-01-10T13:58:00;6.60;40.30
38480;DHT22;62333;51.980;5.934;2024-01-10T14:00:26;6.70;40.50
38480;DHT22;62333;51.980;5.934;2024-01-10T14:02:52;6.70;40.40
38480;DHT22;62333;51.980;5.934;2024-01-10T14:05:24;6.80;40.70
38480;DHT22;62333;51.980;5.934;2024-01-10T14:07:50;6.70;40.50
38480;DHT22;62333;51.980;5.934;2024-01-10T14:10:15;6.70;40.50
38480;DHT22;62333;51.980;5.934;2024-01-10T14:12:41;6.70;40.50
38480;DHT22;62333;51.980;5.934;2024-01-10T14:15:07;6.60;40.60
38480;DHT22;62333;51.980;5.934;2024-01-10T14:17:34;6.60;40.60
38480;DHT22;62333;51.980;5.934;2024-01-10T14:20:00;6.60;40.40
38480;DHT22;62333;51.980;5.934;2024-01-10T14:22:26;6.50;40.60
38480;DHT22;62333;51.980;5.934;2024-01-10T14:24:51;6.40;40.40
38480;DHT22;62333;51.980;5.934;2024-01-10T14:27:19;6.40;40.40
38480;DHT22;62333;51.980;5.934;2024-01-10T14:29:45;6.40;40.50
38480;DHT22;62333;51.980;5.934;2024-01-10T14:32:12;6.30;40.30
38480;DHT22;62333;51.980;5.934;2024-01-10T14:34:40;6.30;40.50
38480;DHT22;62333;51.980;5.934;2024-01-10T14:37:07;6.20;40.70
38480;DHT22;62333;51.980;5.934;2024-01-10T14:39:36;6.00;40.70
38480;DHT22;62333;51.980;5.934;2024-01-10T14:42:06;5.90;40.90
38480;DHT22;62333;51.980;5.934;2024-01-10T14:44:32;5.70;40.80
38480;DHT22;62333;51.980;5.934;2024-01-10T14:46:59;5.60;41.00
38480;DHT22;62333;51.980;5.934;2024-01-10T14:49:25;5.60;41.20
38480;DHT22;62333;51.980;5.934;2024-01-10T14:51:50;5.50;41.30
38480;DHT22;62333;51.980;5.934;2024-01-10T14:54:16;5.40;41.30
38480;DHT22;62333;51.980;5.934;2024-01-10T14:56:43;5.40;41.50
38480;DHT22;62333;51.980;5.934;2024-01-10T14:59:11;5.20;41.60
38480;DHT22;62333;51.980;5.934;2024-01-10T15:01:37;5.20;41.70
38480;DHT22;62333;51.980;5.934;2024-01-10T15:04:03;5.10;41.80
38480;DHT22;62333;51.980;5.934;2024-01-10T15:06:29;5.10;41.90
38480;DHT22;62333;51.980;5.934;2024-01-10T15:08:55;5.00;41.90
38480;DHT22;62333;51.980;5.934;2024-01-10T15:11:20;5.00;42.10
38480;DHT22;62333;51.980;5.934;2024-01-10T15:13:46;5.00;42.10
38480;DHT22;62333;51.980;5.934;2024-01-10T15:16:12;5.00;42.30
38480;DHT22;62333;51.980;5.934;2024-01-10T15:18:37;4.90;42.20
38480;DHT22;62333;51.980;5.934;2024-01-10T15:21:03;4.90;42.30
38480;DHT22;62333;51.980;5.934;2024-01-10T15:23:30;4.90;42.40
38480;DHT22;62333;51.980;5.934;2024-01-10T15:25:56;4.90;43.10
38480;DHT22;62333;51.980;5.934;2024-01-10T15:28:22;4.90;42.60
38480;DHT22;62333;51.980;5.934;2024-01-10T15:30:48;4.80;42.60
38480;DHT22;62333;51.980;5.934;2024-01-10T15:33:13;4.90;42.70
38480;DHT22;62333;51.980;5.934;2024-01-10T15:35:39;4.80;42.80
38480;DHT22;62333;51.980;5.934;2024-01-10T15:38:04;4.90;42.90
38480;DHT22;62333;51.980;5.934;2024-01-10T15:40:30;4.90;42.70
38480;DHT22;62333;51.980;5.934;2024-01-10T15:42:56;4.80;42.80
38480;DHT22;62333;51.980;5.934;2024-01-10T15:45:21;4.80;42.90
38480;DHT22;62333;51.980;5.934;2024-01-10T15:47:47;4.70;43.10
38480;DHT22;62333;51.980;5.934;2024-01-10T15:50:13;4.70;43.20
38480;DHT22;62333;51.980;5.934;2024-01-10T15:52:39;4.80;43.30
38480;DHT22;62333;51.980;5.934;2024-01-10T15:55:05;4.90;43.30